Time,TemperatureF,DewpointF,PressureIn,WindDirection,WindDirectionDegrees,WindSpeedMPH,WindSpeedGustMPH,Humidity,HourlyPrecipIn,Conditions,Clouds,dailyrainin,SolarRadiationWatts/m^2,SoftwareType,DateUTC
2013-08-26 00:22:00,76.0,57.0,-100.00,North,355,3.0,9.0,52,0.00,,,0.00,0.000000,,2013-08-26 06:22:00,
2013-08-26 00:32:00,76.0,57.0,-100.00,North,355,3.0,9.0,52,0.00,,,0.00,0.000000,,2013-08-26 06:32:00,
2013-08-26 00:42:00,76.0,57.0,-100.00,North,355,3.0,9.0,52,0.00,,,0.00,0.000000,,2013-08-26 06:42:00,
2013-08-26 00:52:00,76.0,57.0,-100.00,North,355,3.0,9.0,52,0.00,,,0.00,0.000000,,2013-08-26 06:52:00,
2013-08-26 01:22:00,77.0,56.0,-100.00,North,3,5.0,8.0,49,0.00,,,0.00,0.000000,,2013-08-26 07:22:00,
2013-08-26 01:32:00,77.0,56.0,-100.00,North,3,5.0,8.0,49,0.00,,,0.00,0.000000,,2013-08-26 07:32:00,
2013-08-26 01:42:00,77.0,56.0,-100.00,North,3,5.0,8.0,49,0.00,,,0.00,0.000000,,2013-08-26 07:42:00,
2013-08-26 01:52:00,77.0,56.0,-100.00,North,3,5.0,8.0,49,0.00,,,0.00,0.000000,,2013-08-26 07:52:00,
2013-08-26 02:22:00,76.0,57.0,-100.00,North,5,4.0,8.0,51,0.00,,,0.00,0.000000,,2013-08-26 08:22:00,
2013-08-26 02:32:00,76.0,57.0,-100.00,North,5,4.0,8.0,51,0.00,,,0.00,0.000000,,2013-08-26 08:32:00,
2013-08-26 02:42:00,76.0,57.0,-100.00,North,5,4.0,8.0,51,0.00,,,0.00,0.000000,,2013-08-26 08:42:00,
2013-08-26 02:52:00,76.0,57.0,-100.00,North,5,4.0,8.0,51,0.00,,,0.00,0.000000,,2013-08-26 08:52:00,
2013-08-26 03:21:00,74.0,57.0,-100.00,North,9,4.0,6.0,55,0.00,,,0.00,0.000000,,2013-08-26 09:21:00,
2013-08-26 03:33:00,74.0,57.0,-100.00,North,9,4.0,6.0,55,0.00,,,0.00,0.000000,,2013-08-26 09:33:00,
2013-08-26 03:43:00,74.0,57.0,-100.00,North,9,4.0,6.0,55,0.00,,,0.00,0.000000,,2013-08-26 09:43:00,
2013-08-26 03:53:00,74.0,57.0,-100.00,North,9,4.0,6.0,55,0.00,,,0.00,0.000000,,2013-08-26 09:53:00,
2013-08-26 04:23:00,71.0,57.0,-100.00,NE,35,1.0,7.0,61,0.00,,,0.00,0.000000,,2013-08-26 10:23:00,
2013-08-26 04:32:00,71.0,57.0,-100.00,NE,35,1.0,7.0,61,0.00,,,0.00,0.000000,,2013-08-26 10:32:00,
2013-08-26 04:42:00,71.0,57.0,-100.00,NE,35,1.0,7.0,61,0.00,,,0.00,0.000000,,2013-08-26 10:42:00,
2013-08-26 04:52:00,71.0,57.0,-100.00,NE,35,1.0,7.0,61,0.00,,,0.00,0.000000,,2013-08-26 10:52:00,
2013-08-26 05:22:00,72.0,55.0,-100.00,SSE,153,2.0,4.0,56,0.00,,,0.00,0.000000,,2013-08-26 11:22:00,
2013-08-26 05:33:00,72.0,55.0,-100.00,SSE,153,2.0,4.0,56,0.00,,,0.00,0.000000,,2013-08-26 11:33:00,
2013-08-26 05:42:00,72.0,55.0,-100.00,SSE,153,2.0,4.0,56,0.00,,,0.00,0.000000,,2013-08-26 11:42:00,
2013-08-26 05:52:00,72.0,55.0,-100.00,SSE,153,2.0,4.0,56,0.00,,,0.00,0.000000,,2013-08-26 11:52:00,
2013-08-26 06:22:00,72.0,53.0,-100.00,West,268,4.0,7.0,52,0.00,,,0.00,0.000000,,2013-08-26 12:22:00,
2013-08-26 06:32:00,72.0,53.0,-100.00,West,268,4.0,7.0,52,0.00,,,0.00,0.000000,,2013-08-26 12:32:00,
2013-08-26 06:42:00,72.0,53.0,-100.00,West,268,4.0,7.0,52,0.00,,,0.00,0.000000,,2013-08-26 12:42:00,
2013-08-26 06:52:00,72.0,53.0,-100.00,West,268,4.0,7.0,52,0.00,,,0.00,0.000000,,2013-08-26 12:52:00,
2013-08-26 07:21:00,71.0,50.0,-100.00,WNW,303,3.0,7.0,47,0.00,,,0.00,20.000000,,2013-08-26 13:21:00,
2013-08-26 07:32:00,71.0,50.0,-100.00,WNW,303,3.0,7.0,47,0.00,,,0.00,20.000000,,2013-08-26 13:32:00,
2013-08-26 07:42:00,71.0,50.0,-100.00,WNW,303,3.0,7.0,47,0.00,,,0.00,20.000000,,2013-08-26 13:42:00,
2013-08-26 07:52:00,71.0,50.0,-100.00,WNW,303,3.0,7.0,47,0.00,,,0.00,20.000000,,2013-08-26 13:52:00,
2013-08-26 08:22:00,74.0,52.0,-100.00,NNW,343,3.0,7.0,46,0.00,,,0.00,106.000000,,2013-08-26 14:22:00,
2013-08-26 08:32:00,74.0,52.0,-100.00,NNW,343,3.0,7.0,46,0.00,,,0.00,106.000000,,2013-08-26 14:32:00,
2013-08-26 08:42:00,74.0,52.0,-100.00,NNW,343,3.0,7.0,46,0.00,,,0.00,106.000000,,2013-08-26 14:42:00,
2013-08-26 08:52:00,74.0,52.0,-100.00,NNW,343,3.0,7.0,46,0.00,,,0.00,106.000000,,2013-08-26 14:52:00,
2013-08-26 08:57:00,80.0,52.0,-100.00,WNW,290,5.0,12.0,38,0.00,,,0.00,282.000000,,2013-08-26 14:57:00,
2013-08-26 09:47:00,80.0,52.0,-100.00,WNW,290,5.0,12.0,38,0.00,,,0.00,282.000000,,2013-08-26 15:47:00,
2013-08-26 09:57:00,82.0,52.0,-100.00,WSW,256,8.0,16.0,35,0.00,,,0.00,457.000000,,2013-08-26 15:57:00,
2013-08-26 10:29:00,82.0,52.0,-100.00,WSW,256,8.0,16.0,35,0.00,,,0.00,457.000000,,2013-08-26 16:29:00,
2013-08-26 10:36:00,82.0,52.0,-100.00,WSW,256,8.0,16.0,35,0.00,,,0.00,457.000000,,2013-08-26 16:36:00,
2013-08-26 10:48:00,82.0,52.0,-100.00,WSW,256,8.0,16.0,35,0.00,,,0.00,457.000000,,2013-08-26 16:48:00,
2013-08-26 11:24:00,85.0,51.0,-100.00,WSW,256,8.0,17.0,31,0.00,,,0.00,676.000000,,2013-08-26 17:24:00,
2013-08-26 11:37:00,85.0,51.0,-100.00,WSW,256,8.0,17.0,31,0.00,,,0.00,676.000000,,2013-08-26 17:37:00,
2013-08-26 11:43:00,85.0,51.0,-100.00,WSW,256,8.0,17.0,31,0.00,,,0.00,676.000000,,2013-08-26 17:43:00,
2013-08-26 11:53:00,85.0,51.0,-100.00,WSW,256,8.0,17.0,31,0.00,,,0.00,676.000000,,2013-08-26 17:53:00,
2013-08-26 12:22:00,88.0,51.0,-100.00,WSW,255,9.0,19.0,28,0.00,,,0.00,816.000000,,2013-08-26 18:22:00,
2013-08-26 12:32:00,88.0,51.0,-100.00,WSW,255,9.0,19.0,28,0.00,,,0.00,816.000000,,2013-08-26 18:32:00,
2013-08-26 12:42:00,88.0,51.0,-100.00,WSW,255,9.0,19.0,28,0.00,,,0.00,816.000000,,2013-08-26 18:42:00,
2013-08-26 12:52:00,88.0,51.0,-100.00,WSW,255,9.0,19.0,28,0.00,,,0.00,816.000000,,2013-08-26 18:52:00,
2013-08-26 13:22:00,92.0,46.0,-100.00,WSW,256,8.0,17.0,21,0.00,,,0.00,872.000000,,2013-08-26 19:22:00,
2013-08-26 13:32:00,92.0,46.0,-100.00,WSW,256,8.0,17.0,21,0.00,,,0.00,872.000000,,2013-08-26 19:32:00,
2013-08-26 13:42:00,92.0,46.0,-100.00,WSW,256,8.0,17.0,21,0.00,,,0.00,872.000000,,2013-08-26 19:42:00,
2013-08-26 13:52:00,92.0,46.0,-100.00,WSW,256,8.0,17.0,21,0.00,,,0.00,872.000000,,2013-08-26 19:52:00,
2013-08-26 14:43:00,94.0,45.0,-100.00,WSW,258,8.0,20.0,19,0.00,,,0.00,886.000000,,2013-08-26 20:43:00,
2013-08-26 14:52:00,94.0,45.0,-100.00,WSW,258,8.0,20.0,19,0.00,,,0.00,886.000000,,2013-08-26 20:52:00,
2013-08-26 15:22:00,93.0,46.0,-100.00,West,267,8.0,21.0,20,0.00,,,0.00,777.000000,,2013-08-26 21:22:00,
2013-08-26 15:35:00,93.0,46.0,-100.00,West,267,8.0,21.0,20,0.00,,,0.00,777.000000,,2013-08-26 21:35:00,
2013-08-26 15:44:00,93.0,46.0,-100.00,West,267,8.0,21.0,20,0.00,,,0.00,777.000000,,2013-08-26 21:44:00,
2013-08-26 15:55:00,93.0,46.0,-100.00,West,267,8.0,21.0,20,0.00,,,0.00,777.000000,,2013-08-26 21:55:00,
2013-08-26 16:26:00,93.0,45.0,-100.00,West,262,9.0,20.0,19,0.00,,,0.00,673.000000,,2013-08-26 22:26:00,
2013-08-26 16:34:00,93.0,45.0,-100.00,West,262,9.0,20.0,19,0.00,,,0.00,673.000000,,2013-08-26 22:34:00,
2013-08-26 16:42:00,93.0,45.0,-100.00,West,262,9.0,20.0,19,0.00,,,0.00,673.000000,,2013-08-26 22:42:00,
2013-08-26 16:53:00,93.0,45.0,-100.00,West,262,9.0,20.0,19,0.00,,,0.00,673.000000,,2013-08-26 22:53:00,
2013-08-26 17:22:00,93.0,43.0,-100.00,WNW,298,7.0,20.0,18,0.00,,,0.00,516.000000,,2013-08-26 23:22:00,
2013-08-26 17:34:00,93.0,43.0,-100.00,WNW,298,7.0,20.0,18,0.00,,,0.00,516.000000,,2013-08-26 23:34:00,
2013-08-26 17:42:00,93.0,43.0,-100.00,WNW,298,7.0,20.0,18,0.00,,,0.00,516.000000,,2013-08-26 23:42:00,
2013-08-26 17:52:00,93.0,43.0,-100.00,WNW,298,7.0,20.0,18,0.00,,,0.00,516.000000,,2013-08-26 23:52:00,
2013-08-26 18:21:00,94.0,43.0,-100.00,WSW,237,4.0,13.0,17,0.00,,,0.00,313.000000,,2013-08-27 00:21:00,
2013-08-26 18:32:00,94.0,43.0,-100.00,WSW,237,4.0,13.0,17,0.00,,,0.00,313.000000,,2013-08-27 00:32:00,
2013-08-26 18:42:00,94.0,43.0,-100.00,WSW,237,4.0,13.0,17,0.00,,,0.00,313.000000,,2013-08-27 00:42:00,
2013-08-26 18:52:00,94.0,43.0,-100.00,WSW,237,4.0,13.0,17,0.00,,,0.00,313.000000,,2013-08-27 00:52:00,
2013-08-26 19:22:00,92.0,41.0,-100.00,West,278,5.0,13.0,17,0.00,,,0.00,175.000000,,2013-08-27 01:22:00,
2013-08-26 19:32:00,92.0,41.0,-100.00,West,278,5.0,13.0,17,0.00,,,0.00,175.000000,,2013-08-27 01:32:00,
2013-08-26 19:42:00,92.0,41.0,-100.00,West,278,5.0,13.0,17,0.00,,,0.00,175.000000,,2013-08-27 01:42:00,
2013-08-26 19:52:00,92.0,41.0,-100.00,West,278,5.0,13.0,17,0.00,,,0.00,175.000000,,2013-08-27 01:52:00,
2013-08-26 20:21:00,85.0,42.0,-100.00,WNW,282,2.0,6.0,22,0.00,,,0.00,19.000000,,2013-08-27 02:21:00,
2013-08-26 20:32:00,85.0,42.0,-100.00,WNW,282,2.0,6.0,22,0.00,,,0.00,19.000000,,2013-08-27 02:32:00,
2013-08-26 20:42:00,85.0,42.0,-100.00,WNW,282,2.0,6.0,22,0.00,,,0.00,19.000000,,2013-08-27 02:42:00,
2013-08-26 20:52:00,85.0,42.0,-100.00,WNW,282,2.0,6.0,22,0.00,,,0.00,19.000000,,2013-08-27 02:52:00,
2013-08-26 20:57:00,81.0,46.0,-100.00,NNW,333,2.0,5.0,29,0.00,,,0.00,0.000000,,2013-08-27 02:57:00,
2013-08-26 21:22:00,81.0,46.0,-100.00,NNW,333,2.0,5.0,29,0.00,,,0.00,0.000000,,2013-08-27 03:22:00,
2013-08-26 21:36:00,81.0,46.0,-100.00,NNW,333,2.0,5.0,29,0.00,,,0.00,0.000000,,2013-08-27 03:36:00,
2013-08-26 21:44:00,81.0,46.0,-100.00,NNW,333,2.0,5.0,29,0.00,,,0.00,0.000000,,2013-08-27 03:44:00,
2013-08-26 22:29:00,81.0,46.0,-100.00,NNE,28,3.0,4.0,29,0.00,,,0.00,0.000000,,2013-08-27 04:29:00,
2013-08-26 22:38:00,81.0,46.0,-100.00,NNE,28,3.0,4.0,29,0.00,,,0.00,0.000000,,2013-08-27 04:38:00,
2013-08-26 23:23:00,80.0,46.0,-100.00,NE,44,4.0,7.0,30,-99.99,,,0.00,0.000000,,2013-08-27 05:23:00,
2013-08-26 23:34:00,80.0,46.0,-100.00,NE,44,4.0,7.0,30,-99.99,,,0.00,0.000000,,2013-08-27 05:34:00,
2013-08-26 23:52:00,80.0,46.0,-100.00,NE,44,4.0,7.0,30,-99.99,,,0.00,0.000000,,2013-08-27 05:52:00,